Time;durP1;ratioP1;P1;durP2;ratioP2;P2;SDS_P1;SDS_P2;PMS_P1;PMS_P2;Temp;Humidity;BMP_temperature;BMP_pressure;BME280_temperature;BME280_humidity;BME280_pressure;Samples;Min_cycle;Max_cycle;Signal;HPM_P1;HPM_P2
2021/10/15 00:00:21;;;;;;;;;;;;;;;6.53;82.03;97331.69;30001;982;1877;-59
2021/10/15 00:00:52;;;;;;;;;;;;;;;6.51;81.69;97331.13;30001;982;1881;-60
2021/10/15 00:01:23;;;;;;;;;;;;;;;6.50;81.79;97334.91;30001;983;1885;-59
2021/10/15 00:01:53;;;;;;;;;;;;;;;6.49;81.80;97335.16;30001;983;1880;-60
2021/10/15 00:02:24;;;;;;;;;;;;;;;6.47;81.78;97330.00;30001;983;1885;-59
2021/10/15 00:02:55;;;;;;;;;;;;;;;6.47;81.85;97334.59;30001;983;1881;-59
2021/10/15 00:03:26;;;;;;;;;;;;;;;6.47;82.23;97335.41;30001;983;1885;-58
2021/10/15 00:03:57;;;;;;;;;;;;;;;6.48;82.01;97339.72;30001;983;1881;-59
2021/10/15 00:04:28;;;;;;;;;;;;;;;6.47;82.09;97338.09;30001;983;1872;-59
2021/10/15 00:04:59;;;;;;;;;;;;;;;6.49;82.18;97337.84;30001;983;1872;-59
2021/10/15 00:05:30;;;;;;;;;;;;;;;6.48;81.84;97331.63;30001;983;1885;-60
2021/10/15 00:06:01;;;;;;;;;;;;;;;6.50;82.12;97334.09;30001;982;1881;-60
2021/10/15 00:06:32;;;;;;;;;;;;;;;6.49;81.89;97332.44;30001;982;1885;-59
2021/10/15 00:07:03;;;;;;;;;;;;;;;6.50;82.21;97334.91;30001;982;1868;-59
2021/10/15 00:07:34;;;;;;;;;;;;;;;6.53;82.06;97322.78;30001;982;1877;-61
2021/10/15 00:08:05;;;;;;;;;;;;;;;6.54;81.93;97330.63;30001;982;1881;-59
2021/10/15 00:08:35;;;;;;;;;;;;;;;6.55;81.68;97328.75;30001;983;1872;-60
2021/10/15 00:09:06;;;;;;;;;;;;;;;6.55;81.65;97332.25;30001;983;1872;-60
2021/10/15 00:09:37;;;;;;;;;;;;;;;6.54;81.72;97330.63;30001;983;1885;-59
2021/10/15 00:10:09;;;;;;;;;;;;;;;6.54;81.43;97325.22;30001;983;1881;-59
2021/10/15 00:10:40;;;;;;;;;;;;;;;6.52;81.73;97321.97;30001;983;1885;-60
2021/10/15 00:11:11;;;;;;;;;;;;;;;6.52;81.54;97327.38;30001;983;1881;-60
2021/10/15 00:11:45;;;;;;;;;;;;;;;6.51;81.51;97328.44;30001;983;1885;-59
2021/10/15 00:12:15;;;;;;;;;;;;;;;6.55;81.42;97326.84;30001;983;1868;-59
2021/10/15 00:12:46;;;;;;;;;;;;;;;6.57;81.17;97329.31;30001;983;1876;-59
2021/10/15 00:13:17;;;;;;;;;;;;;;;6.59;81.18;97327.94;30001;983;1881;-59
2021/10/15 00:13:48;;;;;;;;;;;;;;;6.56;80.93;97323.09;30001;982;1885;-60
2021/10/15 00:14:19;;;;;;;;;;;;;;;6.55;81.00;97321.47;30001;982;1881;-59
2021/10/15 00:14:50;;;;;;;;;;;;;;;6.55;81.14;97326.84;30001;982;1885;-59
2021/10/15 00:15:21;;;;;;;;;;;;;;;6.55;81.36;97326.84;30001;982;1881;-59
2021/10/15 00:15:51;;;;;;;;;;;;;;;6.58;81.36;97318.25;30001;982;1885;-60
2021/10/15 00:16:22;;;;;;;;;;;;;;;6.60;80.97;97318.78;30001;983;1880;-58
2021/10/15 00:16:54;;;;;;;;;;;;;;;6.58;80.88;97314.75;30001;983;1885;-60
2021/10/15 00:17:24;;;;;;;;;;;;;;;6.57;80.89;97319.31;30001;983;1867;-59
2021/10/15 00:17:55;;;;;;;;;;;;;;;6.56;80.79;97323.09;30001;983;1876;-60
2021/10/15 00:18:26;;;;;;;;;;;;;;;6.55;81.16;97313.38;30001;983;1881;-60
2021/10/15 00:18:57;;;;;;;;;;;;;;;6.58;80.64;97312.06;30001;983;1885;-59
2021/10/15 00:19:28;;;;;;;;;;;;;;;6.58;80.87;97318.25;30001;983;1881;-58
2021/10/15 00:19:58;;;;;;;;;;;;;;;6.55;80.88;97318.78;30001;983;1885;-59
2021/10/15 00:20:33;;;;;;;;;;;;;;;6.55;80.92;97317.97;30001;982;1881;-68
2021/10/15 00:21:07;;;;;;;;;;;;;;;6.56;80.52;97316.88;30001;982;1885;-59
2021/10/15 00:21:38;;;;;;;;;;;;;;;6.60;80.44;97313.41;30001;982;1881;-60
2021/10/15 00:22:09;;;;;;;;;;;;;;;6.61;80.19;97312.31;30001;975;1902;-59
2021/10/15 00:22:40;;;;;;;;;;;;;;;6.64;80.13;97311.00;30001;982;1868;-59
2021/10/15 00:23:11;;;;;;;;;;;;;;;6.63;80.15;97310.19;30001;982;1877;-60
2021/10/15 00:23:42;;;;;;;;;;;;;;;6.63;80.48;97318.28;30001;983;1880;-60
2021/10/15 00:24:12;;;;;;;;;;;;;;;6.60;80.20;97313.41;30001;983;1885;-58
2021/10/15 00:24:43;;;;;;;;;;;;;;;6.59;80.25;97310.94;30001;983;1880;-59
2021/10/15 00:25:14;;;;;;;;;;;;;;;6.56;80.39;97306.91;30001;983;1885;-59
2021/10/15 00:25:45;;;;;;;;;;;;;;;6.55;80.84;97310.69;30001;983;1880;-65
2021/10/15 00:26:16;;;;;;;;;;;;;;;6.54;80.57;97305.53;30001;983;1872;-58
2021/10/15 00:26:46;;;;;;;;;;;;;;;6.54;80.65;97308.25;30001;983;1872;-59
2021/10/15 00:27:17;;;;;;;;;;;;;;;6.53;80.70;97307.44;30001;983;1885;-67
2021/10/15 00:27:48;;;;;;;;;;;;;;;6.54;80.89;97309.06;30001;982;1881;-60
2021/10/15 00:28:19;;;;;;;;;;;;;;;6.55;80.85;97310.69;30001;982;1885;-60
2021/10/15 00:28:49;;;;;;;;;;;;;;;6.55;80.50;97313.38;30001;982;1881;-59
2021/10/15 00:29:20;;;;;;;;;;;;;;;6.57;80.61;97313.94;30001;982;1872;-59
2021/10/15 00:29:51;;;;;;;;;;;;;;;6.62;80.38;97316.66;30001;982;1859;-60
2021/10/15 00:30:22;;;;;;;;;;;;;;;6.58;80.23;97312.88;30001;982;1886;-58
2021/10/15 00:30:56;;;;;;;;;;;;;;;6.56;80.58;97317.69;30001;982;1881;-60
2021/10/15 00:31:27;;;;;;;;;;;;;;;6.59;80.46;97321.75;30001;983;1885;-59
2021/10/15 00:31:59;;;;;;;;;;;;;;;6.57;80.24;97313.13;30001;983;1880;-59
2021/10/15 00:32:30;;;;;;;;;;;;;;;6.54;80.20;97309.06;30001;983;1872;-60
2021/10/15 00:33:01;;;;;;;;;;;;;;;6.50;80.76;97320.59;30001;983;1872;-60
2021/10/15 00:33:32;;;;;;;;;;;;;;;6.46;80.55;97312.22;30001;983;1885;-59
2021/10/15 00:34:03;;;;;;;;;;;;;;;6.45;80.83;97323.25;30001;983;1881;-60
2021/10/15 00:34:34;;;;;;;;;;;;;;;6.42;81.12;97312.97;30001;983;1885;-58
2021/10/15 00:35:05;;;;;;;;;;;;;;;6.39;81.22;97322.38;30001;983;1881;-58
2021/10/15 00:35:36;;;;;;;;;;;;;;;6.35;81.39;97315.88;30001;982;1885;-61
2021/10/15 00:36:07;;;;;;;;;;;;;;;6.33;81.61;97318.00;30001;982;1881;-59
2021/10/15 00:36:38;;;;;;;;;;;;;;;6.31;81.68;97314.75;30001;960;1907;-60
2021/10/15 00:37:10;;;;;;;;;;;;;;;6.32;81.92;97319.06;30001;982;1881;-59
2021/10/15 00:37:40;;;;;;;;;;;;;;;6.30;81.73;97318.50;30001;982;1872;-59
2021/10/15 00:38:12;;;;;;;;;;;;;;;6.29;81.85;97314.19;30001;982;1872;-58
2021/10/15 00:38:43;;;;;;;;;;;;;;;6.27;81.84;97305.53;30001;983;1885;-59
2021/10/15 00:39:13;;;;;;;;;;;;;;;6.29;81.71;97311.50;30001;983;1880;-59
2021/10/15 00:39:45;;;;;;;;;;;;;;;6.28;81.87;97304.47;30001;983;1885;-59
2021/10/15 00:40:16;;;;;;;;;;;;;;;6.26;81.72;97307.44;30001;983;1880;-60
2021/10/15 00:40:47;;;;;;;;;;;;;;;6.34;81.18;97308.84;30001;983;1885;-59
2021/10/15 00:41:18;;;;;;;;;;;;;;;6.34;81.22;97303.47;30001;983;1881;-59
2021/10/15 00:41:49;;;;;;;;;;;;;;;6.33;81.00;97307.22;30001;983;1872;-58
2021/10/15 00:42:20;;;;;;;;;;;;;;;6.31;81.32;97298.59;30001;983;1872;-59
2021/10/15 00:42:51;;;;;;;;;;;;;;;6.31;81.37;97298.59;30001;983;1885;-59
2021/10/15 00:43:21;;;;;;;;;;;;;;;6.32;81.32;97300.22;30001;982;1881;-60
2021/10/15 00:44:18;;;;;;;;;;;;;;;6.32;81.68;97305.59;30001;982;1885;-58
2021/10/15 00:44:49;;;;;;;;;;;;;;;6.36;81.32;97306.72;30001;982;1863;-59
2021/10/15 00:45:20;;;;;;;;;;;;;;;6.33;81.28;97296.44;30001;987;1867;-59
2021/10/15 00:45:53;;;;;;;;;;;;;;;6.32;81.67;97295.63;30001;982;1885;-59
2021/10/15 00:46:24;;;;;;;;;;;;;;;6.32;81.31;97300.22;30001;983;1880;-59
2021/10/15 00:46:55;;;;;;;;;;;;;;;6.31;81.29;97296.69;30001;983;1885;-59
2021/10/15 00:47:26;;;;;;;;;;;;;;;6.31;81.14;97296.69;30001;983;1867;-59
2021/10/15 00:47:56;;;;;;;;;;;;;;;6.30;81.54;97297.78;30001;983;1863;-60
2021/10/15 00:48:27;;;;;;;;;;;;;;;6.29;81.72;97295.31;30001;983;1880;-59
2021/10/15 00:48:58;;;;;;;;;;;;;;;6.29;81.43;97289.94;30001;983;1885;-59
2021/10/15 00:49:29;;;;;;;;;;;;;;;6.28;81.30;97299.09;30001;983;1880;-60
2021/10/15 00:50:00;;;;;;;;;;;;;;;6.28;81.14;97299.09;30001;983;1885;-60
2021/10/15 00:50:31;;;;;;;;;;;;;;;6.26;81.10;97290.44;30001;982;1881;-67
2021/10/15 00:51:01;;;;;;;;;;;;;;;6.26;81.57;97293.97;30001;982;1885;-66
2021/10/15 00:51:33;;;;;;;;;;;;;;;6.27;81.30;97289.38;30001;982;1881;-64
2021/10/15 00:52:05;;;;;;;;;;;;;;;6.27;81.56;97292.06;30001;982;1872;-58
2021/10/15 00:52:37;;;;;;;;;;;;;;;6.26;81.57;97295.84;30001;982;1859;-59
2021/10/15 00:53:08;;;;;;;;;;;;;;;6.23;81.55;97290.97;30001;983;1871;-60
2021/10/15 00:53:39;;;;;;;;;;;;;;;6.21;81.60;97290.44;30001;983;1871;-58
2021/10/15 00:54:11;;;;;;;;;;;;;;;6.21;81.80;97287.72;30001;983;1884;-59
2021/10/15 00:54:42;;;;;;;;;;;;;;;6.20;81.88;97286.09;30001;983;1880;-60
2021/10/15 00:55:13;;;;;;;;;;;;;;;6.20;81.87;97286.09;30001;983;1885;-59
2021/10/15 00:55:44;;;;;;;;;;;;;;;6.20;81.90;97291.50;30001;983;1880;-59
2021/10/15 00:56:15;;;;;;;;;;;;;;;6.21;81.63;97282.34;30001;983;1885;-59
2021/10/15 00:56:47;;;;;;;;;;;;;;;6.22;81.69;97289.34;30001;983;1880;-59
2021/10/15 00:57:18;;;;;;;;;;;;;;;6.21;81.65;97285.03;30001;983;1872;-59
2021/10/15 00:57:49;;;;;;;;;;;;;;;6.21;81.78;97282.34;30001;983;1872;-59
2021/10/15 00:58:19;;;;;;;;;;;;;;;6.22;81.77;97278.56;30001;982;1885;-59
2021/10/15 00:58:50;;;;;;;;;;;;;;;6.22;81.35;97283.97;30001;982;1868;-58
2021/10/15 00:59:21;;;;;;;;;;;;;;;6.22;81.40;97279.41;30001;982;1876;-68
2021/10/15 00:59:52;;;;;;;;;;;;;;;6.27;81.26;97281.28;30001;982;1881;-59
2021/10/15 01:00:23;;;;;;;;;;;;;;;6.26;81.05;97285.88;30001;982;1885;-58
2021/10/15 01:00:56;;;;;;;;;;;;;;;6.25;81.45;97280.72;30001;983;1880;-64
2021/10/15 01:01:27;;;;;;;;;;;;;;;6.26;81.63;97285.06;30001;983;1884;-58
2021/10/15 01:01:58;;;;;;;;;;;;;;;6.25;81.58;97278.03;30001;983;1880;-60
2021/10/15 01:02:29;;;;;;;;;;;;;;;6.24;81.40;97277.22;30001;983;1885;-60
2021/10/15 01:03:00;;;;;;;;;;;;;;;6.23;81.45;97275.62;30001;983;1867;-60
2021/10/15 01:03:30;;;;;;;;;;;;;;;6.25;81.58;97280.72;30001;983;1876;-59
2021/10/15 01:04:02;;;;;;;;;;;;;;;6.25;81.46;97278.03;30001;983;1880;-59
2021/10/15 01:04:35;;;;;;;;;;;;;;;6.25;81.13;97280.72;30001;983;1885;-59
2021/10/15 01:05:07;;;;;;;;;;;;;;;6.24;81.51;97284.50;30001;983;1881;-59
2021/10/15 01:05:38;;;;;;;;;;;;;;;6.23;81.48;97281.03;30001;982;1885;-58
2021/10/15 01:06:09;;;;;;;;;;;;;;;6.23;81.46;97272.13;30001;982;1881;-59
2021/10/15 01:06:40;;;;;;;;;;;;;;;6.23;81.04;97277.50;30001;982;1885;-60
2021/10/15 01:07:10;;;;;;;;;;;;;;;6.23;81.23;97277.50;30001;982;1881;-60
2021/10/15 01:07:41;;;;;;;;;;;;;;;6.22;81.13;97273.19;30001;982;1872;-58
2021/10/15 01:08:12;;;;;;;;;;;;;;;6.24;81.13;97276.41;30001;983;1871;-60
2021/10/15 01:08:45;;;;;;;;;;;;;;;6.25;81.00;97276.16;30001;983;1871;-59
2021/10/15 01:09:16;;;;;;;;;;;;;;;6.27;80.53;97275.91;30001;983;1871;-60
2021/10/15 01:09:48;;;;;;;;;;;;;;;6.28;80.59;97269.44;30001;983;1885;-59
2021/10/15 01:10:19;;;;;;;;;;;;;;;6.28;80.33;97275.66;30001;983;1881;-59
2021/10/15 01:10:51;;;;;;;;;;;;;;;6.31;80.64;97269.75;30001;983;1885;-60
2021/10/15 01:11:22;;;;;;;;;;;;;;;6.32;80.27;97274.06;30001;983;1881;-58
2021/10/15 01:11:54;;;;;;;;;;;;;;;6.32;80.10;97278.66;30001;983;1885;-60
2021/10/15 01:12:25;;;;;;;;;;;;;;;6.31;80.52;97268.94;30001;983;1881;-59
2021/10/15 01:12:56;;;;;;;;;;;;;;;6.28;80.51;97270.25;30001;983;1885;-60
2021/10/15 01:13:27;;;;;;;;;;;;;;;6.26;80.87;97268.88;30001;982;1881;-59
2021/10/15 01:13:58;;;;;;;;;;;;;;;6.25;81.14;97272.66;30001;982;1872;-59
2021/10/15 01:14:30;;;;;;;;;;;;;;;6.23;81.13;97269.44;30001;982;1872;-59
2021/10/15 01:15:01;;;;;;;;;;;;;;;6.27;80.93;97270.50;30001;982;1885;-59
2021/10/15 01:15:32;;;;;;;;;;;;;;;6.27;80.80;97275.91;30001;982;1881;-59
2021/10/15 01:16:06;;;;;;;;;;;;;;;6.26;80.52;97272.41;30001;983;1884;-59
2021/10/15 01:16:37;;;;;;;;;;;;;;;6.25;80.69;97268.06;30001;983;1880;-60
2021/10/15 01:17:09;;;;;;;;;;;;;;;6.28;80.78;97274.84;30001;983;1885;-60
2021/10/15 01:17:40;;;;;;;;;;;;;;;6.27;80.44;97265.94;30001;983;1880;-60
2021/10/15 01:18:12;;;;;;;;;;;;;;;6.26;80.09;97269.69;30001;983;1872;-59
2021/10/15 01:18:44;;;;;;;;;;;;;;;6.25;80.57;97261.88;30001;983;1872;-59
2021/10/15 01:19:15;;;;;;;;;;;;;;;6.25;80.74;97267.25;30001;983;1885;-58
2021/10/15 01:19:50;;;;;;;;;;;;;;;6.25;80.45;97268.06;30001;983;1881;-59
2021/10/15 01:20:21;;;;;;;;;;;;;;;6.26;80.63;97263.50;30001;983;1885;-59
2021/10/15 01:20:52;;;;;;;;;;;;;;;6.28;80.69;97272.16;30001;982;1881;-59
2021/10/15 01:21:23;;;;;;;;;;;;;;;6.28;80.26;97264.06;30001;982;1885;-60
2021/10/15 01:21:54;;;;;;;;;;;;;;;6.27;80.32;97259.72;30001;982;1881;-61
2021/10/15 01:22:28;;;;;;;;;;;;;;;6.28;80.32;97266.75;30001;982;1885;-60
2021/10/15 01:22:59;;;;;;;;;;;;;;;6.28;80.10;97266.75;30001;982;1881;-59
2021/10/15 01:23:30;;;;;;;;;;;;;;;6.28;80.30;97255.97;30001;983;1871;-61
2021/10/15 01:24:01;;;;;;;;;;;;;;;6.30;79.80;97253.84;30001;983;1871;-59
2021/10/15 01:24:32;;;;;;;;;;;;;;;6.29;79.97;97258.41;30001;983;1885;-59
2021/10/15 01:25:03;;;;;;;;;;;;;;;6.28;79.66;97261.38;30001;983;1880;-59
2021/10/15 01:25:35;;;;;;;;;;;;;;;6.28;79.93;97261.38;30001;983;1885;-60
2021/10/15 01:26:07;;;;;;;;;;;;;;;6.27;79.83;97259.72;30001;983;1881;-58
2021/10/15 01:26:38;;;;;;;;;;;;;;;6.27;80.01;97259.72;30001;983;1872;-60
2021/10/15 01:27:09;;;;;;;;;;;;;;;6.24;79.99;97261.06;30001;983;1872;-59
2021/10/15 01:27:40;;;;;;;;;;;;;;;6.26;80.12;97258.94;30001;982;1885;-60
2021/10/15 01:28:11;;;;;;;;;;;;;;;6.25;79.92;97256.47;30001;982;1881;-61
2021/10/15 01:28:42;;;;;;;;;;;;;;;6.23;79.79;97253.25;30001;982;1885;-58
2021/10/15 01:29:12;;;;;;;;;;;;;;;6.23;79.81;97259.47;30001;982;1868;-60
2021/10/15 01:29:43;;;;;;;;;;;;;;;6.21;79.82;97252.69;30001;982;1876;-59
2021/10/15 01:30:14;;;;;;;;;;;;;;;6.19;80.03;97258.34;30001;982;1881;-58
2021/10/15 01:30:45;;;;;;;;;;;;;;;6.18;80.14;97259.41;30001;983;1884;-60
2021/10/15 01:31:15;;;;;;;;;;;;;;;6.19;80.14;97252.16;30001;983;1880;-59
2021/10/15 01:31:46;;;;;;;;;;;;;;;6.17;80.01;97255.09;30001;983;1885;-58
2021/10/15 01:32:18;;;;;;;;;;;;;;;6.18;80.29;97253.22;30001;983;1880;-59
2021/10/15 01:32:48;;;;;;;;;;;;;;;6.19;80.34;97257.53;30001;983;1872;-59
2021/10/15 01:33:20;;;;;;;;;;;;;;;6.19;80.37;97257.53;30001;983;1872;-61
2021/10/15 01:33:51;;;;;;;;;;;;;;;6.19;80.15;97254.84;30001;983;1872;-59
2021/10/15 01:34:22;;;;;;;;;;;;;;;6.20;80.08;97253.78;30001;983;1872;-60
2021/10/15 01:34:52;;;;;;;;;;;;;;;6.24;79.99;97252.16;30001;982;1885;-60
2021/10/15 01:35:23;;;;;;;;;;;;;;;6.24;79.61;97254.84;30001;982;1868;-60
2021/10/15 01:35:54;;;;;;;;;;;;;;;6.23;79.94;97258.66;30001;986;1850;-60
2021/10/15 01:36:25;;;;;;;;;;;;;;;6.24;80.15;97257.56;30001;982;1881;-61
2021/10/15 01:36:56;;;;;;;;;;;;;;;6.27;79.44;97252.47;30001;982;1877;-59
2021/10/15 01:37:27;;;;;;;;;;;;;;;6.25;79.39;97245.72;30001;982;1881;-59
2021/10/15 01:37:58;;;;;;;;;;;;;;;6.24;79.73;97250.28;30001;982;1877;-59
2021/10/15 01:38:29;;;;;;;;;;;;;;;6.22;80.02;97251.63;30001;983;1880;-60
2021/10/15 01:38:59;;;;;;;;;;;;;;;6.19;80.24;97252.16;30001;983;1876;-59
2021/10/15 01:39:30;;;;;;;;;;;;;;;6.19;80.24;97254.84;30001;983;1880;-59
2021/10/15 01:40:01;;;;;;;;;;;;;;;6.20;80.33;97254.59;30001;962;1897;-59
2021/10/15 01:40:32;;;;;;;;;;;;;;;6.19;79.91;97252.16;30001;983;1867;-59
2021/10/15 01:41:03;;;;;;;;;;;;;;;6.17;80.21;97249.69;30001;983;1867;-60
2021/10/15 01:41:34;;;;;;;;;;;;;;;6.17;80.13;97244.31;30001;983;1880;-60
2021/10/15 01:42:05;;;;;;;;;;;;;;;6.15;80.23;97246.44;30001;983;1876;-59
2021/10/15 01:42:54;;;;;;;;;;;;;;;6.16;80.44;97245.38;30001;982;1881;-59
2021/10/15 01:43:26;;;;;;;;;;;;;;;6.18;80.02;97245.12;30001;982;1876;-60
2021/10/15 01:43:57;;;;;;;;;;;;;;;6.17;80.22;97246.19;30001;982;1881;-60
2021/10/15 01:44:28;;;;;;;;;;;;;;;6.17;80.08;97240.81;30001;982;1877;-59
2021/10/15 01:44:59;;;;;;;;;;;;;;;6.17;80.34;97238.94;30001;987;1881;-59
2021/10/15 01:45:30;;;;;;;;;;;;;;;6.17;80.36;97240.81;30001;982;1864;-59
2021/10/15 01:46:01;;;;;;;;;;;;;;;6.17;80.15;97243.50;30001;983;1872;-58
2021/10/15 01:46:31;;;;;;;;;;;;;;;6.18;80.00;97239.75;30001;983;1876;-60
2021/10/15 01:47:03;;;;;;;;;;;;;;;6.18;80.11;97237.84;30001;983;1880;-59
2021/10/15 01:47:33;;;;;;;;;;;;;;;6.18;80.00;97243.25;30001;983;1876;-59
2021/10/15 01:48:06;;;;;;;;;;;;;;;6.18;80.00;97242.44;30001;983;1880;-59
2021/10/15 01:48:37;;;;;;;;;;;;;;;6.20;80.16;97243.00;30001;983;1863;-59
2021/10/15 01:49:08;;;;;;;;;;;;;;;6.18;79.83;97239.75;30001;983;1872;-60
2021/10/15 01:49:39;;;;;;;;;;;;;;;6.20;79.98;97237.59;30001;983;1876;-60
2021/10/15 01:50:09;;;;;;;;;;;;;;;6.21;79.68;97239.22;30001;982;1868;-60
2021/10/15 01:50:40;;;;;;;;;;;;;;;6.19;80.20;97235.97;30001;982;1868;-59
2021/10/15 01:51:11;;;;;;;;;;;;;;;6.16;80.21;97234.59;30001;982;1881;-59
2021/10/15 01:51:42;;;;;;;;;;;;;;;6.16;80.31;97231.09;30001;982;1877;-58
2021/10/15 01:52:13;;;;;;;;;;;;;;;6.16;80.50;97231.09;30001;982;1881;-59
2021/10/15 01:52:44;;;;;;;;;;;;;;;6.14;80.48;97233.22;30001;983;1876;-59
2021/10/15 01:53:15;;;;;;;;;;;;;;;6.13;80.48;97229.72;30001;983;1880;-59
2021/10/15 01:53:46;;;;;;;;;;;;;;;6.15;80.29;97229.47;30001;983;1876;-59
2021/10/15 01:54:17;;;;;;;;;;;;;;;6.16;80.12;97231.09;30001;983;1880;-60
2021/10/15 01:54:48;;;;;;;;;;;;;;;6.17;80.21;97235.41;30001;983;1863;-60
2021/10/15 01:55:19;;;;;;;;;;;;;;;6.16;79.92;97237.31;30001;983;1872;-60
2021/10/15 01:55:50;;;;;;;;;;;;;;;6.16;79.91;97231.09;30001;983;1876;-59
2021/10/15 01:56:20;;;;;;;;;;;;;;;6.19;79.81;97227.91;30001;983;1881;-59
2021/10/15 01:56:51;;;;;;;;;;;;;;;6.18;79.62;97234.34;30001;983;1876;-59
2021/10/15 01:57:22;;;;;;;;;;;;;;;6.15;79.81;97224.09;30001;983;1881;-60
2021/10/15 01:57:53;;;;;;;;;;;;;;;6.15;79.68;97229.47;30001;982;1876;-60
2021/10/15 01:58:24;;;;;;;;;;;;;;;6.13;79.87;97227.03;30001;957;1893;-60
2021/10/15 01:58:54;;;;;;;;;;;;;;;6.11;80.14;97222.97;30001;982;1868;-60
2021/10/15 01:59:25;;;;;;;;;;;;;;;6.11;80.22;97222.97;30001;982;1881;-59
2021/10/15 01:59:56;;;;;;;;;;;;;;;6.10;80.29;97226.72;30001;982;1877;-60
2021/10/15 02:00:27;;;;;;;;;;;;;;;6.11;80.14;97225.66;30001;983;1880;-59
2021/10/15 02:01:02;;;;;;;;;;;;;;;6.11;79.86;97228.34;30001;983;1876;-60
2021/10/15 02:01:32;;;;;;;;;;;;;;;6.09;80.23;97219.72;30001;983;1880;-60
2021/10/15 02:02:03;;;;;;;;;;;;;;;6.09;80.28;97220.53;30001;983;1863;-60
2021/10/15 02:02:34;;;;;;;;;;;;;;;6.09;80.17;97223.22;30001;983;1872;-60
2021/10/15 02:03:05;;;;;;;;;;;;;;;6.10;79.74;97222.16;30001;983;1876;-59
2021/10/15 02:03:36;;;;;;;;;;;;;;;6.10;80.00;97221.34;30001;983;1881;-59
2021/10/15 02:04:07;;;;;;;;;;;;;;;6.09;79.85;97227.78;30001;983;1863;-60
2021/10/15 02:04:38;;;;;;;;;;;;;;;6.07;80.20;97216.47;30001;983;1872;-59
2021/10/15 02:05:10;;;;;;;;;;;;;;;6.05;79.97;97220.22;30001;982;1876;-60
2021/10/15 02:05:41;;;;;;;;;;;;;;;6.07;80.14;97217.28;30001;982;1881;-59
2021/10/15 02:06:11;;;;;;;;;;;;;;;6.07;79.88;97221.84;30001;982;1877;-59
2021/10/15 02:06:42;;;;;;;;;;;;;;;6.10;80.10;97211.37;30001;982;1881;-59
2021/10/15 02:07:13;;;;;;;;;;;;;;;6.12;79.81;97220.00;30001;982;1877;-59
2021/10/15 02:07:44;;;;;;;;;;;;;;;6.12;80.00;97216.50;30001;983;1880;-60
2021/10/15 02:08:15;;;;;;;;;;;;;;;6.09;79.84;97214.31;30001;983;1876;-60
2021/10/15 02:08:46;;;;;;;;;;;;;;;6.10;80.00;97224.03;30001;983;1880;-61
2021/10/15 02:09:17;;;;;;;;;;;;;;;6.08;79.89;97218.91;30001;983;1863;-59
2021/10/15 02:09:47;;;;;;;;;;;;;;;6.07;79.92;97221.84;30001;983;1872;-60
2021/10/15 02:10:20;;;;;;;;;;;;;;;6.05;79.83;97217.53;30001;983;1876;-60
2021/10/15 02:10:51;;;;;;;;;;;;;;;6.07;80.02;97221.84;30001;983;1880;-59
2021/10/15 02:11:21;;;;;;;;;;;;;;;6.05;79.81;97220.22;30001;983;1876;-58
2021/10/15 02:11:52;;;;;;;;;;;;;;;6.08;79.99;97212.69;30001;982;1868;-60
2021/10/15 02:12:23;;;;;;;;;;;;;;;6.13;79.87;97215.44;30001;982;1868;-60
2021/10/15 02:12:54;;;;;;;;;;;;;;;6.15;79.79;97213.31;30001;982;1881;-66
2021/10/15 02:13:25;;;;;;;;;;;;;;;6.17;79.60;97213.88;30001;982;1876;-60
2021/10/15 02:13:56;;;;;;;;;;;;;;;6.16;79.70;97212.25;30001;982;1881;-60
2021/10/15 02:14:27;;;;;;;;;;;;;;;6.16;79.33;97214.94;30001;982;1877;-65
2021/10/15 02:14:57;;;;;;;;;;;;;;;6.15;79.51;97213.31;30001;982;1881;-59
2021/10/15 02:15:28;;;;;;;;;;;;;;;6.13;79.37;97212.75;30001;983;1876;-60
2021/10/15 02:15:59;;;;;;;;;;;;;;;6.10;79.42;97215.94;30001;983;1867;-58
2021/10/15 02:16:30;;;;;;;;;;;;;;;6.07;79.54;97216.47;30001;983;1867;-60
2021/10/15 02:17:01;;;;;;;;;;;;;;;6.07;79.78;97211.06;30001;983;1880;-64
2021/10/15 02:17:32;;;;;;;;;;;;;;;6.03;79.73;97216.16;30001;983;1876;-60
2021/10/15 02:18:03;;;;;;;;;;;;;;;6.04;80.00;97207.81;30001;983;1880;-60
2021/10/15 02:18:34;;;;;;;;;;;;;;;6.03;79.65;97211.59;30001;983;1876;-60
2021/10/15 02:19:05;;;;;;;;;;;;;;;6.09;79.77;97217.03;30001;983;1867;-60
2021/10/15 02:19:36;;;;;;;;;;;;;;;6.07;79.83;97211.87;30001;982;1854;-59
2021/10/15 02:20:08;;;;;;;;;;;;;;;6.07;79.78;97217.28;30001;982;1881;-59
2021/10/15 02:20:39;;;;;;;;;;;;;;;6.05;79.76;97214.84;30001;982;1876;-59
2021/10/15 02:21:10;;;;;;;;;;;;;;;6.03;79.61;97206.19;30001;982;1868;-59
2021/10/15 02:21:41;;;;;;;;;;;;;;;6.04;79.74;97207.00;30001;982;1868;-67
2021/10/15 02:22:12;;;;;;;;;;;;;;;6.03;79.93;97210.78;30001;982;1881;-59
2021/10/15 02:22:44;;;;;;;;;;;;;;;6.00;79.80;97209.41;30001;983;1876;-59
2021/10/15 02:23:15;;;;;;;;;;;;;;;6.01;80.00;97205.63;30001;983;1880;-59
2021/10/15 02:23:46;;;;;;;;;;;;;;;6.00;79.75;97209.41;30001;983;1876;-58
2021/10/15 02:24:17;;;;;;;;;;;;;;;5.97;79.77;97211.78;30001;983;1881;-66
2021/10/15 02:24:48;;;;;;;;;;;;;;;5.95;79.77;97206.66;30001;983;1876;-60
2021/10/15 02:25:19;;;;;;;;;;;;;;;5.94;80.12;97205.03;30001;983;1881;-59
2021/10/15 02:25:50;;;;;;;;;;;;;;;5.93;79.89;97206.09;30001;983;1876;-59
2021/10/15 02:26:21;;;;;;;;;;;;;;;5.94;80.29;97204.22;30001;986;1867;-59
2021/10/15 02:26:52;;;;;;;;;;;;;;;5.91;80.13;97202.84;30001;982;1868;-59
2021/10/15 02:27:23;;;;;;;;;;;;;;;5.88;80.51;97197.97;30001;982;1881;-59
2021/10/15 02:27:54;;;;;;;;;;;;;;;5.88;80.58;97202.53;30001;982;1876;-60
2021/10/15 02:28:25;;;;;;;;;;;;;;;5.91;80.33;97207.41;30001;982;1881;-60
2021/10/15 02:28:56;;;;;;;;;;;;;;;5.89;80.28;97199.59;30001;982;1877;-58
2021/10/15 02:29:26;;;;;;;;;;;;;;;5.87;80.58;97199.03;30001;983;1870;-60
2021/10/15 02:29:59;;;;;;;;;;;;;;;5.89;80.44;97194.19;30001;983;1876;-60
2021/10/15 02:30:29;;;;;;;;;;;;;;;5.87;80.37;97196.34;30001;983;1880;-60
2021/10/15 02:31:00;;;;;;;;;;;;;;;5.86;80.28;97202.78;30001;983;1876;-59
2021/10/15 02:31:31;;;;;;;;;;;;;;;5.83;80.29;97195.22;30001;983;1867;-60
2021/10/15 02:32:02;;;;;;;;;;;;;;;5.82;80.28;97196.28;30001;983;1854;-59
2021/10/15 02:32:35;;;;;;;;;;;;;;;5.83;80.57;97195.22;30001;983;1880;-60
2021/10/15 02:33:05;;;;;;;;;;;;;;;5.83;80.66;97189.84;30001;983;1876;-59
2021/10/15 02:33:36;;;;;;;;;;;;;;;5.82;80.61;97187.38;30001;983;1881;-60
2021/10/15 02:34:07;;;;;;;;;;;;;;;5.82;80.81;97192.78;30001;983;1876;-59
2021/10/15 02:34:41;;;;;;;;;;;;;;;5.84;80.70;97196.84;30001;982;1881;-59
2021/10/15 02:35:13;;;;;;;;;;;;;;;5.84;80.40;97186.06;30001;982;1876;-64
2021/10/15 02:35:43;;;;;;;;;;;;;;;5.82;80.71;97190.09;30001;982;1881;-66
2021/10/15 02:36:16;;;;;;;;;;;;;;;5.80;80.72;97190.34;30001;982;1863;-59
2021/10/15 02:36:48;;;;;;;;;;;;;;;5.78;80.75;97187.09;30001;982;1872;-60
2021/10/15 02:37:18;;;;;;;;;;;;;;;5.78;81.18;97187.09;30001;983;1876;-60
2021/10/15 02:37:52;;;;;;;;;;;;;;;5.79;81.09;97193.28;30001;983;1880;-60
2021/10/15 02:38:22;;;;;;;;;;;;;;;5.81;81.01;97185.75;30001;983;1867;-59
2021/10/15 02:38:56;;;;;;;;;;;;;;;5.86;80.69;97192.00;30001;970;1884;-59
2021/10/15 02:39:26;;;;;;;;;;;;;;;5.87;80.41;97190.94;30001;983;1880;-60
2021/10/15 02:39:57;;;;;;;;;;;;;;;5.86;80.61;97183.13;30001;983;1885;-60
2021/10/15 02:40:29;;;;;;;;;;;;;;;5.85;80.58;97193.09;30001;983;1880;-59
2021/10/15 02:41:00;;;;;;;;;;;;;;;5.85;81.01;97186.88;30001;983;1885;-59
2021/10/15 02:41:31;;;;;;;;;;;;;;;5.84;80.96;97183.38;30001;983;1881;-59
2021/10/15 02:42:02;;;;;;;;;;;;;;;5.85;81.00;97187.69;30001;982;1885;-59
2021/10/15 02:42:33;;;;;;;;;;;;;;;5.85;80.70;97186.88;30001;982;1871;-60
2021/10/15 02:43:04;;;;;;;;;;;;;;;5.84;81.01;97186.06;30001;982;1885;-60
2021/10/15 02:43:35;;;;;;;;;;;;;;;5.85;80.91;97182.31;30001;982;1881;-60
2021/10/15 02:44:10;;;;;;;;;;;;;;;5.87;80.50;97182.88;30001;982;1872;-60
2021/10/15 02:44:40;;;;;;;;;;;;;;;5.87;80.43;97180.19;30001;983;1871;-66
2021/10/15 02:45:11;;;;;;;;;;;;;;;5.86;80.87;97178.56;30001;983;1884;-58
2021/10/15 02:45:42;;;;;;;;;;;;;;;5.90;80.63;97178.84;30001;983;1880;-58
2021/10/15 02:46:14;;;;;;;;;;;;;;;5.90;80.66;97178.84;30001;983;1885;-58
2021/10/15 02:46:45;;;;;;;;;;;;;;;5.87;80.38;97180.19;30001;983;1880;-58
2021/10/15 02:47:17;;;;;;;;;;;;;;;5.86;80.75;97175.84;30001;983;1885;-58
2021/10/15 02:47:48;;;;;;;;;;;;;;;5.85;81.07;97181.50;30001;983;1881;-59
2021/10/15 02:48:18;;;;;;;;;;;;;;;5.85;80.97;97182.31;30001;983;1884;-59
2021/10/15 02:48:49;;;;;;;;;;;;;;;5.84;81.18;97186.06;30001;983;1880;-58
2021/10/15 02:49:20;;;;;;;;;;;;;;;5.85;80.91;97176.94;30001;983;1871;-59